Time;durP1;ratioP1;P1;durP2;ratioP2;P2;SDS_P1;SDS_P2;PMS_P1;PMS_P2;Temp;Humidity;BMP_temperature;BMP_pressure;BME280_temperature;BME280_humidity;BME280_pressure;Samples;Min_cycle;Max_cycle;Signal;HPM_P1;HPM_P2
2021/03/11 00:00:47;;;;;;;17.87;13.10;;;5.20;96.40;;;;;;5085084;28;20229;-79
2021/03/11 00:03:15;;;;;;;16.07;12.40;;;5.30;96.60;;;;;;5084696;28;20758;-78
2021/03/11 00:05:42;;;;;;;17.60;12.90;;;5.20;96.80;;;;;;5084968;28;20203;-79
2021/03/11 00:08:08;;;;;;;17.20;13.40;;;5.20;97.10;;;;;;5085074;28;20211;-79
2021/03/11 00:10:36;;;;;;;16.30;13.23;;;5.30;97.20;;;;;;5085092;28;20239;-80
2021/03/11 00:13:03;;;;;;;15.40;12.77;;;5.30;97.50;;;;;;5084992;28;20680;-78
2021/03/11 00:15:34;;;;;;;16.80;12.63;;;5.30;97.60;;;;;;5085032;28;20572;-79
2021/03/11 00:18:00;;;;;;;17.03;13.37;;;5.30;97.80;;;;;;5084991;28;20652;-80
2021/03/11 00:20:28;;;;;;;17.53;13.43;;;5.30;98.00;;;;;;5084744;28;20233;-81
2021/03/11 00:22:55;;;;;;;16.37;12.80;;;5.30;98.30;;;;;;5085073;28;20230;-78
2021/03/11 00:25:24;;;;;;;18.87;13.90;;;5.20;98.60;;;;;;5085207;28;20498;-79
2021/03/11 00:27:52;;;;;;;18.57;13.83;;;5.20;98.80;;;;;;5085044;28;20546;-80
2021/03/11 00:30:19;;;;;;;17.77;14.30;;;5.30;99.00;;;;;;5084855;28;20245;-78
2021/03/11 00:32:45;;;;;;;18.93;14.67;;;5.20;99.10;;;;;;5084744;28;20203;-81
2021/03/11 00:35:13;;;;;;;16.37;12.80;;;5.20;99.30;;;;;;5084780;28;20217;-78
2021/03/11 00:37:40;;;;;;;18.77;13.77;;;5.20;99.50;;;;;;5084745;28;20280;-80
2021/03/11 00:40:09;;;;;;;18.93;13.70;;;5.20;99.80;;;;;;5085709;28;20268;-80
2021/03/11 00:42:35;;;;;;;19.50;13.33;;;5.20;99.90;;;;;;5088066;28;20669;-78
2021/03/11 00:45:03;;;;;;;16.87;12.90;;;5.20;99.90;;;;;;5088328;28;20210;-80
2021/03/11 00:47:29;;;;;;;18.90;14.47;;;5.20;99.90;;;;;;5087884;28;20687;-80
2021/03/11 00:49:55;;;;;;;18.30;14.30;;;5.20;99.90;;;;;;5088338;28;20244;-78
2021/03/11 00:52:21;;;;;;;19.33;14.10;;;5.20;99.90;;;;;;5095270;28;20681;-81
2021/03/11 00:54:47;;;;;;;18.43;14.07;;;5.20;99.90;;;;;;5094123;28;20630;-77
2021/03/11 00:57:14;;;;;;;19.90;14.33;;;5.10;99.90;;;;;;5091285;28;20410;-78
2021/03/11 00:59:40;;;;;;;21.23;14.00;;;5.10;99.90;;;;;;5091046;28;20203;-78
2021/03/11 01:02:07;;;;;;;20.87;15.47;;;5.10;99.90;;;;;;5090739;28;20237;-78
2021/03/11 01:04:33;;;;;;;18.93;14.63;;;5.10;99.90;;;;;;5090916;28;20191;-78
2021/03/11 01:06:59;;;;;;;23.60;15.43;;;5.10;99.90;;;;;;5090969;28;20210;-79
2021/03/11 01:09:25;;;;;;;20.10;14.90;;;5.10;99.90;;;;;;5090754;28;20226;-79
2021/03/11 01:11:51;;;;;;;21.37;15.00;;;5.10;99.90;;;;;;5090785;28;20214;-78
2021/03/11 01:14:18;;;;;;;22.77;15.90;;;5.10;99.90;;;;;;5090654;28;20488;-79
2021/03/11 01:16:46;;;;;;;22.30;15.30;;;5.10;99.90;;;;;;5090431;28;20210;-81
2021/03/11 01:19:13;;;;;;;22.03;15.90;;;5.10;99.90;;;;;;5089950;28;20210;-78
2021/03/11 01:21:39;;;;;;;21.50;15.30;;;5.10;99.90;;;;;;5090594;28;20252;-81
2021/03/11 01:24:06;;;;;;;21.43;15.60;;;5.10;99.90;;;;;;5090923;28;20586;-81
2021/03/11 01:26:32;;;;;;;25.17;15.87;;;5.10;99.90;;;;;;5090886;28;20207;-81
2021/03/11 01:28:59;;;;;;;23.03;16.23;;;5.10;99.90;;;;;;5090733;28;20233;-80
2021/03/11 01:31:27;;;;;;;20.60;15.60;;;5.10;99.90;;;;;;5090135;28;20657;-80
2021/03/11 01:33:53;;;;;;;21.63;15.20;;;5.10;99.90;;;;;;5090852;28;20207;-81
2021/03/11 01:36:21;;;;;;;21.33;15.67;;;5.10;99.90;;;;;;5090680;28;20198;-80
2021/03/11 01:38:47;;;;;;;23.27;16.30;;;5.10;99.90;;;;;;5090350;28;20238;-81
2021/03/11 01:41:13;;;;;;;22.23;16.20;;;5.10;99.90;;;;;;5090672;28;20203;-82
2021/03/11 01:43:40;;;;;;;22.33;16.27;;;5.10;99.90;;;;;;5090683;28;20551;-80
2021/03/11 01:46:06;;;;;;;23.87;16.03;;;5.10;99.90;;;;;;5090608;28;20217;-82
2021/03/11 01:48:32;;;;;;;23.27;16.20;;;5.10;99.90;;;;;;5090435;28;20211;-81
2021/03/11 01:50:59;;;;;;;23.63;16.10;;;5.10;99.90;;;;;;5089973;28;20206;-84
2021/03/11 01:53:26;;;;;;;22.03;15.83;;;5.10;99.90;;;;;;5090356;28;20260;-80
2021/03/11 01:55:52;;;;;;;22.63;16.20;;;5.10;99.90;;;;;;5090447;28;20281;-82
2021/03/11 01:58:19;;;;;;;20.90;15.47;;;5.10;99.90;;;;;;5090081;28;20557;-79
2021/03/11 02:00:45;;;;;;;24.03;16.77;;;5.10;99.90;;;;;;5090007;28;20207;-78
2021/03/11 02:03:11;;;;;;;23.40;16.60;;;5.10;99.90;;;;;;5089738;28;20230;-78
2021/03/11 02:05:37;;;;;;;24.23;16.53;;;5.20;99.90;;;;;;5089903;28;20199;-78
2021/03/11 02:08:04;;;;;;;23.30;16.27;;;5.10;99.90;;;;;;5089727;28;20692;-79
2021/03/11 02:10:31;;;;;;;22.80;16.50;;;5.20;99.90;;;;;;5089718;28;20226;-79
2021/03/11 02:13:10;;;;;;;23.10;16.30;;;5.20;99.90;;;;;;5089777;28;20202;-78
2021/03/11 02:15:42;;;;;;;20.73;15.73;;;5.10;99.90;;;;;;5089921;28;20230;-79
2021/03/11 02:18:17;;;;;;;20.83;15.13;;;5.10;99.90;;;;;;5089768;28;20240;-79
2021/03/11 02:20:51;;;;;;;21.10;16.37;;;5.10;99.90;;;;;;5089330;28;20294;-80
2021/03/11 02:24:12;;;;;;;22.73;15.90;;;5.10;99.90;;;;;;5089833;28;20590;-79
2021/03/11 02:27:03;;;;;;;24.77;17.03;;;5.20;99.90;;;;;;5026558;28;20233;-79
2021/03/11 02:29:33;;;;;;;22.77;15.77;;;5.20;99.90;;;;;;5026328;28;20251;-78
2021/03/11 02:32:02;;;;;;;21.27;15.63;;;5.20;99.90;;;;;;5075043;28;20632;-79
2021/03/11 02:34:34;;;;;;;21.63;15.80;;;5.20;99.90;;;;;;5089400;28;20211;-78
2021/03/11 02:37:05;;;;;;;23.23;16.30;;;5.20;99.90;;;;;;5089575;28;20288;-78
2021/03/11 02:39:33;;;;;;;22.13;16.60;;;5.20;99.90;;;;;;5088888;28;20784;-78
2021/03/11 02:42:00;;;;;;;21.23;15.27;;;5.20;99.90;;;;;;5089411;28;20290;-78
2021/03/11 02:44:27;;;;;;;21.23;15.80;;;5.20;99.90;;;;;;5089162;28;20210;-78
2021/03/11 02:46:55;;;;;;;21.60;15.87;;;5.20;99.90;;;;;;5088861;28;20264;-79
2021/03/11 02:49:22;;;;;;;20.70;15.33;;;5.20;99.90;;;;;;5089274;28;20230;-80
2021/03/11 02:51:50;;;;;;;23.10;16.63;;;5.20;99.90;;;;;;5088775;28;20761;-79
2021/03/11 02:54:17;;;;;;;21.20;15.77;;;5.20;99.90;;;;;;5104181;28;20691;-79
2021/03/11 02:56:44;;;;;;;23.43;16.50;;;5.30;99.90;;;;;;5109461;28;20204;-78
2021/03/11 02:59:12;;;;;;;22.53;15.77;;;5.30;99.90;;;;;;5109214;27;20665;-79
2021/03/11 03:01:39;;;;;;;21.93;16.10;;;5.20;99.90;;;;;;5109002;28;20217;-78
2021/03/11 03:04:09;;;;;;;25.17;16.90;;;5.20;99.90;;;;;;5108257;28;20621;-80
2021/03/11 03:06:37;;;;;;;23.27;16.17;;;5.20;99.90;;;;;;5109679;28;20209;-78
2021/03/11 03:09:04;;;;;;;21.03;15.33;;;5.30;99.90;;;;;;5109229;28;20230;-79
2021/03/11 03:11:31;;;;;;;22.27;15.33;;;5.30;99.90;;;;;;5109108;28;20202;-79
2021/03/11 03:13:58;;;;;;;21.93;15.57;;;5.30;99.90;;;;;;5109979;28;20205;-78
2021/03/11 03:16:24;;;;;;;21.60;15.40;;;5.30;99.90;;;;;;5109528;28;20225;-80
2021/03/11 03:18:52;;;;;;;20.47;14.87;;;5.30;99.90;;;;;;5109572;28;20596;-80
2021/03/11 03:21:19;;;;;;;21.67;16.47;;;5.30;99.90;;;;;;5109043;28;20692;-80
2021/03/11 03:23:47;;;;;;;20.80;15.50;;;5.30;99.90;;;;;;5108934;28;20213;-81
2021/03/11 03:26:13;;;;;;;22.17;15.87;;;5.30;99.90;;;;;;5109496;28;20198;-82
2021/03/11 03:28:39;;;;;;;22.53;16.40;;;5.30;99.90;;;;;;5109111;28;20551;-80
2021/03/11 03:31:06;;;;;;;22.80;17.03;;;5.30;99.90;;;;;;5109233;28;20229;-82
2021/03/11 03:33:32;;;;;;;22.50;15.90;;;5.30;99.90;;;;;;5108838;28;20206;-79
2021/03/11 03:35:58;;;;;;;24.73;16.83;;;5.20;99.90;;;;;;5109085;28;20338;-80
2021/03/11 03:38:26;;;;;;;24.40;16.60;;;5.20;99.90;;;;;;5108878;28;20226;-80
2021/03/11 03:40:52;;;;;;;23.30;16.27;;;5.20;99.90;;;;;;5108639;28;20213;-80
2021/03/11 03:43:21;;;;;;;23.00;15.77;;;5.20;99.90;;;;;;5108954;28;20266;-79
2021/03/11 03:45:52;;;;;;;24.93;17.13;;;5.20;99.90;;;;;;5108973;28;20242;-78
2021/03/11 03:48:22;;;;;;;24.50;16.97;;;5.20;99.90;;;;;;5109005;28;20197;-84
2021/03/11 03:50:49;;;;;;;23.43;16.80;;;5.10;99.90;;;;;;5109037;28;20233;-78
2021/03/11 03:53:20;;;;;;;24.27;17.43;;;5.10;99.90;;;;;;5108997;28;20205;-79
2021/03/11 03:55:50;;;;;;;24.83;17.83;;;5.10;99.90;;;;;;5108697;28;20645;-80
2021/03/11 03:58:17;;;;;;;29.27;18.90;;;5.00;99.90;;;;;;5108699;28;20664;-79
2021/03/11 04:00:44;;;;;;;24.87;17.50;;;5.00;99.90;;;;;;5108370;28;20675;-79
2021/03/11 04:03:12;;;;;;;24.40;18.10;;;4.90;99.90;;;;;;5108341;28;20233;-80
2021/03/11 04:05:39;;;;;;;24.50;17.07;;;4.90;99.90;;;;;;5108317;28;20721;-78
2021/03/11 04:08:06;;;;;;;28.53;17.83;;;4.90;99.90;;;;;;5108746;28;20206;-79
2021/03/11 04:10:36;;;;;;;25.80;17.00;;;4.90;99.90;;;;;;5108236;28;20704;-81
2021/03/11 04:13:04;;;;;;;25.53;17.77;;;4.90;99.90;;;;;;5108975;28;20202;-84
2021/03/11 04:15:30;;;;;;;25.93;17.43;;;4.90;99.90;;;;;;5112077;28;20251;-80
2021/03/11 04:17:58;;;;;;;24.63;17.37;;;4.90;99.90;;;;;;5112562;28;20210;-81
2021/03/11 04:20:25;;;;;;;27.40;17.77;;;4.90;99.90;;;;;;5112584;28;20214;-81
2021/03/11 04:22:51;;;;;;;24.27;17.77;;;4.90;99.90;;;;;;5112509;27;20274;-81
2021/03/11 04:25:19;;;;;;;25.00;17.07;;;4.90;99.90;;;;;;5112463;28;20206;-80
2021/03/11 04:27:45;;;;;;;26.93;17.97;;;4.90;99.90;;;;;;5112191;28;20206;-80
2021/03/11 04:30:13;;;;;;;24.37;17.07;;;4.90;99.90;;;;;;5112179;28;20302;-79
2021/03/11 04:32:40;;;;;;;24.53;16.57;;;4.90;99.90;;;;;;5112211;28;20697;-80
2021/03/11 04:35:09;;;;;;;25.23;17.40;;;4.90;99.90;;;;;;5112344;28;20206;-81
2021/03/11 04:37:37;;;;;;;25.60;16.37;;;4.80;99.90;;;;;;5112045;28;20230;-78
2021/03/11 04:40:04;;;;;;;25.17;17.80;;;4.90;99.90;;;;;;5103191;28;20206;-79
2021/03/11 04:42:31;;;;;;;23.70;16.80;;;4.90;99.90;;;;;;5095954;28;20593;-79
2021/03/11 04:44:57;;;;;;;25.13;17.27;;;4.90;99.90;;;;;;5091702;28;20301;-80
2021/03/11 04:47:26;;;;;;;24.37;16.73;;;4.90;99.90;;;;;;5091799;28;20206;-80
2021/03/11 04:49:52;;;;;;;24.53;16.80;;;5.00;99.90;;;;;;5090928;28;20333;-76
2021/03/11 04:52:19;;;;;;;23.93;16.70;;;5.00;99.90;;;;;;5091360;28;20283;-77
2021/03/11 04:54:46;;;;;;;22.10;15.47;;;5.00;99.90;;;;;;5091247;28;20315;-79
2021/03/11 04:57:13;;;;;;;21.67;15.67;;;5.00;99.90;;;;;;5091419;28;20217;-79
2021/03/11 04:59:39;;;;;;;21.30;15.20;;;5.00;99.90;;;;;;5091263;28;20565;-81
2021/03/11 05:02:07;;;;;;;22.67;15.83;;;5.00;99.90;;;;;;5090715;28;20242;-79
2021/03/11 05:04:35;;;;;;;21.87;15.93;;;5.00;99.90;;;;;;5090892;28;20195;-78
2021/03/11 05:07:01;;;;;;;23.57;16.10;;;5.00;99.90;;;;;;5090427;28;20596;-79
2021/03/11 05:09:27;;;;;;;23.00;16.70;;;5.00;99.90;;;;;;5090420;28;20226;-79
2021/03/11 05:11:53;;;;;;;20.13;14.60;;;5.00;99.90;;;;;;5090917;28;20198;-79
2021/03/11 05:14:19;;;;;;;23.70;16.27;;;5.10;99.90;;;;;;5091061;28;20211;-78
2021/03/11 05:16:46;;;;;;;22.40;16.00;;;5.10;99.90;;;;;;5090531;28;20692;-79
2021/03/11 05:19:12;;;;;;;23.13;16.10;;;5.00;99.90;;;;;;5090884;28;20211;-79
2021/03/11 05:21:39;;;;;;;22.87;15.90;;;5.10;99.90;;;;;;5090480;28;20553;-81
2021/03/11 05:24:06;;;;;;;22.43;15.90;;;5.10;99.90;;;;;;5090737;28;20584;-80
2021/03/11 05:26:32;;;;;;;23.33;15.70;;;5.10;99.90;;;;;;5089644;28;20207;-78
2021/03/11 05:28:58;;;;;;;23.47;16.07;;;5.10;99.90;;;;;;5090670;28;20203;-79
2021/03/11 05:31:24;;;;;;;24.63;17.10;;;5.10;99.90;;;;;;5090523;28;20691;-79
2021/03/11 05:33:50;;;;;;;26.00;16.90;;;5.10;99.90;;;;;;5090570;28;20218;-80
2021/03/11 05:36:17;;;;;;;26.67;17.87;;;5.10;99.90;;;;;;5090821;28;20214;-80
2021/03/11 05:38:45;;;;;;;28.13;18.23;;;5.10;99.90;;;;;;5090451;28;20222;-80
2021/03/11 05:41:12;;;;;;;25.50;17.80;;;5.10;99.90;;;;;;5090536;28;20245;-80
2021/03/11 05:43:40;;;;;;;22.97;16.53;;;5.00;99.90;;;;;;5090235;28;20241;-81
2021/03/11 05:46:07;;;;;;;25.93;17.47;;;5.10;99.90;;;;;;5090689;28;20241;-80
2021/03/11 05:48:36;;;;;;;25.73;17.63;;;5.10;99.90;;;;;;5090289;28;20229;-80
2021/03/11 05:51:02;;;;;;;29.90;20.33;;;5.00;99.90;;;;;;5090309;28;20272;-79
2021/03/11 05:53:31;;;;;;;26.63;18.00;;;5.00;99.90;;;;;;5090305;28;20264;-79
2021/03/11 05:55:58;;;;;;;32.77;20.23;;;5.00;99.90;;;;;;5089722;28;20199;-79
2021/03/11 05:58:24;;;;;;;33.30;21.27;;;5.00;99.90;;;;;;5090342;28;20215;-78
2021/03/11 06:00:50;;;;;;;30.13;20.50;;;4.90;99.90;;;;;;5089714;28;20684;-79
2021/03/11 06:03:17;;;;;;;33.57;21.30;;;4.90;99.90;;;;;;5089844;28;20708;-80
2021/03/11 06:05:44;;;;;;;33.40;21.00;;;4.90;99.90;;;;;;5089948;28;20236;-80
2021/03/11 06:08:10;;;;;;;32.50;20.57;;;4.90;99.90;;;;;;5089969;28;20671;-80
2021/03/11 06:10:39;;;;;;;31.07;20.33;;;4.90;99.90;;;;;;5094407;28;20222;-80
2021/03/11 06:13:08;;;;;;;32.77;20.33;;;4.90;99.90;;;;;;5093318;28;20202;-79
2021/03/11 06:15:36;;;;;;;31.23;19.97;;;4.90;99.90;;;;;;5089947;28;20545;-80
2021/03/11 06:18:06;;;;;;;33.27;20.07;;;4.90;99.90;;;;;;5089916;28;20566;-79
2021/03/11 06:20:32;;;;;;;32.73;19.33;;;4.90;99.90;;;;;;5089858;28;20207;-78
2021/03/11 06:22:58;;;;;;;34.10;19.97;;;4.90;99.90;;;;;;5089533;28;20205;-78
2021/03/11 06:25:27;;;;;;;31.10;19.40;;;5.00;99.90;;;;;;5089858;28;20844;-79
2021/03/11 06:27:53;;;;;;;30.60;19.37;;;5.00;99.90;;;;;;5089516;28;20199;-79
2021/03/11 06:30:34;;;;;;;26.90;18.23;;;5.00;99.90;;;;;;5089399;28;20237;-79
2021/03/11 06:33:01;;;;;;;32.57;19.70;;;5.00;99.90;;;;;;5089442;28;20236;-79
2021/03/11 06:35:28;;;;;;;29.47;19.33;;;5.00;99.90;;;;;;5089633;28;20203;-81
2021/03/11 06:37:55;;;;;;;30.03;19.27;;;5.00;99.90;;;;;;5089418;28;20254;-80
2021/03/11 06:40:23;;;;;;;32.83;20.03;;;4.90;99.90;;;;;;5089556;28;20207;-81
2021/03/11 06:42:51;;;;;;;33.97;21.70;;;4.90;99.90;;;;;;5089185;28;20206;-81
2021/03/11 06:45:26;;;;;;;32.87;19.53;;;4.90;99.90;;;;;;5089185;28;20198;-80
2021/03/11 06:48:14;;;;;;;33.53;21.27;;;4.90;99.90;;;;;;5089092;28;20571;-80
2021/03/11 06:50:40;;;;;;;30.37;19.90;;;5.00;99.90;;;;;;5088821;28;20238;-80
2021/03/11 06:53:06;;;;;;;31.03;20.17;;;4.90;99.90;;;;;;5089555;28;20252;-83
2021/03/11 06:55:32;;;;;;;31.57;20.23;;;4.90;99.90;;;;;;5089670;28;20731;-82
2021/03/11 06:58:19;;;;;;;30.67;20.27;;;4.90;99.90;;;;;;5089643;28;20214;-82
2021/03/11 07:00:47;;;;;;;33.47;20.17;;;4.90;99.90;;;;;;5089285;28;20191;-79
2021/03/11 07:03:14;;;;;;;29.37;19.93;;;4.90;99.90;;;;;;5088515;28;20649;-78
2021/03/11 07:05:43;;;;;;;30.93;19.77;;;4.90;99.90;;;;;;5088862;28;20198;-78
2021/03/11 07:08:13;;;;;;;32.00;21.17;;;4.90;99.90;;;;;;5091966;28;20202;-79
2021/03/11 07:10:40;;;;;;;31.83;21.03;;;4.90;99.90;;;;;;5097107;28;20237;-80
2021/03/11 07:13:07;;;;;;;29.23;19.50;;;4.90;99.90;;;;;;5096307;28;20203;-79
2021/03/11 07:15:36;;;;;;;30.27;19.50;;;4.90;99.90;;;;;;5088720;28;20214;-77
2021/03/11 07:18:05;;;;;;;29.90;19.13;;;4.90;99.90;;;;;;5088581;28;20260;-77
2021/03/11 07:20:34;;;;;;;31.00;19.77;;;4.90;99.90;;;;;;5088861;28;20268;-77
2021/03/11 07:23:06;;;;;;;32.60;19.27;;;5.00;99.90;;;;;;5088703;28;20242;-78
2021/03/11 07:25:35;;;;;;;28.87;18.90;;;5.00;99.90;;;;;;5088681;28;20199;-81
2021/03/11 07:28:02;;;;;;;27.97;18.17;;;5.00;99.90;;;;;;5088127;28;20229;-79
2021/03/11 07:30:28;;;;;;;30.27;18.07;;;5.00;99.90;;;;;;5091239;28;20225;-78
2021/03/11 07:33:00;;;;;;;28.10;18.97;;;5.10;99.90;;;;;;5091113;28;20207;-79
2021/03/11 07:35:28;;;;;;;29.10;19.07;;;5.10;99.90;;;;;;5088621;28;20687;-82
2021/03/11 07:37:59;;;;;;;27.10;17.83;;;5.10;99.90;;;;;;5096884;28;20224;-81
2021/03/11 07:40:26;;;;;;;27.67;17.70;;;5.10;99.90;;;;;;5097202;28;20191;-83
2021/03/11 07:42:53;;;;;;;25.67;17.13;;;5.10;99.90;;;;;;5102912;28;20206;-79
2021/03/11 07:45:19;;;;;;;26.27;17.57;;;5.10;99.90;;;;;;5108906;28;20263;-78
2021/03/11 07:47:46;;;;;;;25.27;17.83;;;5.20;99.90;;;;;;5108558;28;20210;-77
2021/03/11 07:50:15;;;;;;;26.93;17.30;;;5.20;99.90;;;;;;5110937;28;20234;-80
2021/03/11 07:52:42;;;;;;;26.33;16.77;;;5.20;99.90;;;;;;5092055;28;20599;-79
2021/03/11 07:55:11;;;;;;;27.10;17.80;;;5.20;99.90;;;;;;5092529;28;20207;-79
2021/03/11 07:57:41;;;;;;;24.13;16.80;;;5.20;99.90;;;;;;5092038;28;20652;-79
2021/03/11 08:00:08;;;;;;;25.17;17.00;;;5.20;99.90;;;;;;5092026;28;20340;-79
2021/03/11 08:02:36;;;;;;;22.33;15.17;;;5.30;99.90;;;;;;5092149;28;20238;-81
2021/03/11 08:05:03;;;;;;;24.10;16.20;;;5.30;99.90;;;;;;5092173;28;20207;-80
2021/03/11 08:07:29;;;;;;;23.13;16.13;;;5.30;99.90;;;;;;5092344;28;20198;-78
2021/03/11 08:09:57;;;;;;;25.73;16.70;;;5.30;99.90;;;;;;5092208;28;20238;-81
2021/03/11 08:12:34;;;;;;;26.03;16.10;;;5.30;99.90;;;;;;5091929;28;20207;-83
2021/03/11 08:15:01;;;;;;;25.73;17.03;;;5.30;99.90;;;;;;5093950;28;20215;-79
2021/03/11 08:17:39;;;;;;;26.00;16.97;;;5.40;99.90;;;;;;5111657;28;20732;-80
2021/03/11 08:20:07;;;;;;;24.20;16.23;;;5.30;99.90;;;;;;5111428;28;20198;-81
2021/03/11 08:23:02;;;;;;;25.03;15.73;;;5.40;99.90;;;;;;5106463;28;20676;-78
2021/03/11 08:25:44;;;;;;;24.40;16.90;;;5.40;99.90;;;;;;5107504;28;20660;-79
2021/03/11 08:28:37;;;;;;;24.40;16.27;;;5.40;99.90;;;;;;5108518;28;20201;-79
2021/03/11 08:31:05;;;;;;;21.30;15.37;;;5.40;99.90;;;;;;5108038;28;20221;-79
2021/03/11 08:33:46;;;;;;;24.07;15.17;;;5.40;99.90;;;;;;5108089;28;20210;-81
2021/03/11 08:36:30;;;;;;;25.17;16.97;;;5.50;99.90;;;;;;5108129;28;20244;-78
2021/03/11 08:38:56;;;;;;;23.60;16.10;;;5.50;99.90;;;;;;5106401;28;20237;-80
2021/03/11 08:41:32;;;;;;;23.50;15.60;;;5.50;99.90;;;;;;5108311;28;20213;-79
2021/03/11 08:44:02;;;;;;;22.23;15.73;;;5.50;99.90;;;;;;5108267;28;20212;-81
2021/03/11 08:46:48;;;;;;;25.53;16.00;;;5.50;99.90;;;;;;5107961;28;20198;-79
2021/03/11 08:49:36;;;;;;;22.23;15.30;;;5.40;99.90;;;;;;5108216;28;20213;-79
2021/03/11 08:52:02;;;;;;;25.77;16.80;;;5.40;99.90;;;;;;5098966;28;20277;-79
2021/03/11 08:54:29;;;;;;;26.27;17.63;;;5.40;99.90;;;;;;5110783;28;20206;-78
2021/03/11 08:56:55;;;;;;;30.80;18.33;;;5.50;99.90;;;;;;5111429;28;20634;-77
2021/03/11 08:59:43;;;;;;;26.73;18.03;;;5.50;99.90;;;;;;5102612;28;20217;-79
2021/03/11 09:02:31;;;;;;;26.60;18.27;;;5.50;99.90;;;;;;5089627;28;20227;-80
2021/03/11 09:04:58;;;;;;;27.33;17.83;;;5.40;99.90;;;;;;5090690;28;20343;-80
2021/03/11 09:07:33;;;;;;;25.23;17.73;;;5.40;99.90;;;;;;5091289;28;20213;-81
2021/03/11 09:10:00;;;;;;;27.50;17.77;;;5.50;99.90;;;;;;5090918;28;20234;-79
2021/03/11 09:12:36;;;;;;;33.03;19.17;;;5.50;99.90;;;;;;5100133;28;21120;-80
2021/03/11 09:15:06;;;;;;;31.03;18.67;;;5.50;99.90;;;;;;5111224;28;20190;-80
2021/03/11 09:17:34;;;;;;;29.40;18.73;;;5.50;99.90;;;;;;5100237;28;20207;-79
2021/03/11 09:20:04;;;;;;;32.60;20.23;;;5.40;99.90;;;;;;5090547;28;20692;-79
2021/03/11 09:22:32;;;;;;;36.80;19.77;;;5.50;99.90;;;;;;5090827;28;20211;-79
2021/03/11 09:25:13;;;;;;;33.03;19.90;;;5.50;99.90;;;;;;5090758;28;20228;-79
2021/03/11 09:27:54;;;;;;;32.30;20.10;;;5.50;99.90;;;;;;5090184;28;20665;-80
2021/03/11 09:30:23;;;;;;;34.60;19.13;;;5.50;99.90;;;;;;5090618;28;20218;-82
2021/03/11 09:32:50;;;;;;;35.43;22.47;;;5.50;99.90;;;;;;5098055;28;20669;-88
2021/03/11 09:35:16;;;;;;;34.53;20.73;;;5.50;99.90;;;;;;5102954;28;20194;-79
2021/03/11 09:37:51;;;;;;;38.90;21.27;;;5.60;99.90;;;;;;5095658;28;20705;-84
2021/03/11 09:40:21;;;;;;;35.60;20.77;;;5.60;99.90;;;;;;5090608;28;20547;-82
2021/03/11 09:43:18;;;;;;;34.90;20.97;;;5.60;99.90;;;;;;5089827;28;20212;-82
2021/03/11 09:45:51;;;;;;;35.73;21.03;;;5.50;99.90;;;;;;5090481;28;20191;-81
2021/03/11 09:48:20;;;;;;;40.23;21.03;;;5.50;99.90;;;;;;5090663;28;20702;-82
2021/03/11 09:50:52;;;;;;;36.67;21.83;;;5.50;99.90;;;;;;5090643;28;20288;-82
2021/03/11 09:53:19;;;;;;;37.87;20.83;;;5.50;99.90;;;;;;5090968;28;20213;-81
2021/03/11 09:55:47;;;;;;;35.90;20.47;;;5.50;99.90;;;;;;5090652;28;20198;-82
2021/03/11 09:58:17;;;;;;;39.93;21.47;;;5.60;99.90;;;;;;5090373;28;20673;-81
2021/03/11 10:00:44;;;;;;;37.60;20.90;;;5.60;99.90;;;;;;5090335;28;20194;-81
2021/03/11 10:03:23;;;;;;;37.73;21.33;;;5.60;99.90;;;;;;5090218;28;20269;-81
2021/03/11 10:05:59;;;;;;;36.50;21.10;;;5.60;99.90;;;;;;5090065;28;20223;-84
2021/03/11 10:08:34;;;;;;;39.20;21.70;;;5.60;99.90;;;;;;5090623;28;20246;-81
2021/03/11 10:11:10;;;;;;;38.17;20.97;;;5.60;99.90;;;;;;5089899;28;20223;-81
2021/03/11 10:13:42;;;;;;;33.77;19.03;;;5.60;99.90;;;;;;5090075;28;20199;-83
2021/03/11 10:16:10;;;;;;;38.67;20.90;;;5.70;99.90;;;;;;5090161;28;20202;-79
2021/03/11 10:18:37;;;;;;;38.20;21.70;;;5.70;99.90;;;;;;5089993;28;20206;-83
2021/03/11 10:21:07;;;;;;;35.80;20.33;;;5.70;99.90;;;;;;5090030;28;20230;-83
2021/03/11 10:23:34;;;;;;;36.30;20.73;;;5.70;99.90;;;;;;5089328;28;20684;-83
2021/03/11 10:26:19;;;;;;;37.70;21.47;;;5.70;99.90;;;;;;5089596;28;20305;-82
2021/03/11 10:28:47;;;;;;;39.53;20.40;;;5.70;99.90;;;;;;5089542;28;20611;-81
2021/03/11 10:31:14;;;;;;;35.60;20.10;;;5.70;99.90;;;;;;5089389;28;20699;-81
2021/03/11 10:33:42;;;;;;;35.53;19.83;;;5.80;99.90;;;;;;5089652;28;20692;-81
2021/03/11 10:36:16;;;;;;;32.67;19.87;;;5.90;99.90;;;;;;5089703;28;20333;-81
2021/03/11 10:39:00;;;;;;;32.17;18.77;;;5.90;99.90;;;;;;5090012;28;20227;-81
2021/03/11 10:41:26;;;;;;;36.53;18.97;;;5.90;99.90;;;;;;5089877;28;20218;-84
2021/03/11 10:44:05;;;;;;;31.40;18.87;;;6.00;99.90;;;;;;5089576;28;20210;-81
2021/03/11 10:46:31;;;;;;;29.67;18.27;;;6.10;99.90;;;;;;5089722;28;20210;-81
2021/03/11 10:48:59;;;;;;;35.13;18.90;;;6.20;99.90;;;;;;5089573;28;20203;-83
2021/03/11 10:51:27;;;;;;;31.10;18.73;;;6.40;99.90;;;;;;5089505;28;20705;-81
2021/03/11 10:53:54;;;;;;;27.80;18.10;;;6.50;99.90;;;;;;5089368;28;20658;-81
2021/03/11 10:56:20;;;;;;;26.70;18.17;;;6.50;99.90;;;;;;5089369;28;20323;-82
2021/03/11 10:58:48;;;;;;;25.73;16.87;;;6.70;99.90;;;;;;5088989;28;20210;-81
2021/03/11 11:01:17;;;;;;;26.43;16.27;;;6.90;99.90;;;;;;5092358;28;20609;-81
2021/03/11 11:03:43;;;;;;;23.20;15.70;;;7.10;99.90;;;;;;5106585;28;20233;-83
2021/03/11 11:06:11;;;;;;;21.53;15.30;;;7.20;99.90;;;;;;5109104;28;20202;-83
2021/03/11 11:08:42;;;;;;;22.90;18.60;;;7.20;99.90;;;;;;5090239;28;20238;-85
2021/03/11 11:11:09;;;;;;;19.10;15.50;;;7.30;99.90;;;;;;5095446;28;20206;-81
2021/03/11 11:13:35;;;;;;;17.03;13.00;;;7.30;99.90;;;;;;5094862;28;20194;-81
2021/03/11 11:16:01;;;;;;;16.57;13.13;;;7.30;99.90;;;;;;5099191;28;20224;-81
2021/03/11 11:18:27;;;;;;;15.53;12.80;;;7.30;99.90;;;;;;5096694;28;20205;-82
2021/03/11 11:20:53;;;;;;;14.97;12.73;;;7.40;99.90;;;;;;5098983;28;20691;-85
2021/03/11 11:23:20;;;;;;;16.83;12.73;;;7.40;99.90;;;;;;5096663;28;20767;-81
2021/03/11 11:25:46;;;;;;;15.03;12.40;;;7.40;99.90;;;;;;5096878;28;20199;-80
2021/03/11 11:28:13;;;;;;;16.13;12.67;;;7.40;99.90;;;;;;5096507;28;20722;-81
2021/03/11 11:30:39;;;;;;;13.37;10.70;;;7.40;99.90;;;;;;5097044;28;20222;-81
2021/03/11 11:33:06;;;;;;;14.13;11.57;;;7.40;99.90;;;;;;5097550;28;20206;-81
2021/03/11 11:35:32;;;;;;;13.50;10.60;;;7.50;99.90;;;;;;5096160;28;20208;-82
2021/03/11 11:37:58;;;;;;;13.43;10.90;;;7.40;99.90;;;;;;5095044;28;20218;-81
2021/03/11 11:40:25;;;;;;;13.70;11.03;;;7.50;99.90;;;;;;5098881;28;20194;-81
2021/03/11 11:42:51;;;;;;;13.93;11.03;;;7.50;99.90;;;;;;5097897;28;20207;-81
2021/03/11 11:45:17;;;;;;;14.00;10.83;;;7.80;99.90;;;;;;5096158;28;20252;-82
2021/03/11 11:47:44;;;;;;;12.53;10.77;;;8.10;99.90;;;;;;5097513;28;20255;-81
2021/03/11 11:50:12;;;;;;;13.87;9.83;;;8.30;99.90;;;;;;5093496;28;20768;-81
2021/03/11 11:52:38;;;;;;;10.77;9.67;;;8.50;99.90;;;;;;5094118;28;20194;-81
2021/03/11 11:55:06;;;;;;;13.07;10.30;;;8.80;99.90;;;;;;5094672;28;20233;-80
2021/03/11 11:57:33;;;;;;;9.47;8.50;;;8.90;99.90;;;;;;5095012;28;20570;-82
2021/03/11 11:59:59;;;;;;;9.23;8.33;;;9.10;99.90;;;;;;5097377;28;20240;-82
2021/03/11 12:02:25;;;;;;;8.93;8.13;;;9.30;99.90;;;;;;5094434;28;20226;-81
2021/03/11 12:04:51;;;;;;;8.43;7.53;;;9.60;99.90;;;;;;5095502;28;20199;-82
2021/03/11 12:07:18;;;;;;;8.10;7.40;;;9.70;99.90;;;;;;5089747;28;20644;-85
2021/03/11 12:09:45;;;;;;;8.37;7.57;;;9.90;99.90;;;;;;5084848;28;20249;-82
2021/03/11 12:12:13;;;;;;;8.27;7.47;;;10.00;99.90;;;;;;5084543;28;20245;-81
2021/03/11 12:14:40;;;;;;;8.33;7.13;;;10.20;99.90;;;;;;5084468;28;20206;-82
2021/03/11 12:17:06;;;;;;;7.87;7.07;;;10.30;99.90;;;;;;5084106;28;20218;-81
2021/03/11 12:19:32;;;;;;;7.73;7.03;;;10.60;99.90;;;;;;5098287;28;20206;-80
2021/03/11 12:21:58;;;;;;;7.20;6.50;;;10.70;99.90;;;;;;5104608;28;20220;-82
2021/03/11 12:24:25;;;;;;;6.57;5.97;;;10.60;99.90;;;;;;5104465;28;20217;-81
2021/03/11 12:26:51;;;;;;;8.37;6.27;;;10.30;99.90;;;;;;5104353;28;20210;-81
2021/03/11 12:29:19;;;;;;;7.10;6.40;;;10.20;99.90;;;;;;5104398;28;20279;-82
2021/03/11 12:31:47;;;;;;;6.60;6.00;;;10.10;99.90;;;;;;5104510;28;20320;-83
2021/03/11 12:34:13;;;;;;;6.07;5.57;;;10.00;99.90;;;;;;5104451;28;20257;-83
2021/03/11 12:36:40;;;;;;;7.00;6.27;;;9.90;99.90;;;;;;5107352;28;20249;-78
2021/03/11 12:39:08;;;;;;;7.57;6.77;;;9.80;99.90;;;;;;5106315;28;20722;-79
2021/03/11 12:41:34;;;;;;;6.13;5.63;;;9.80;99.90;;;;;;5098238;28;20206;-82
2021/03/11 12:44:01;;;;;;;7.70;6.27;;;9.80;99.90;;;;;;5107851;28;20250;-81
2021/03/11 12:46:28;;;;;;;6.27;5.77;;;9.80;99.90;;;;;;5093098;28;20203;-82